createdAt,value
2022-11-10T00:01:43.512Z,7.30
2022-11-10T00:04:28.294Z,6.20
2022-11-10T00:07:13.835Z,5.45
2022-11-10T00:09:59.242Z,5.20
2022-11-10T00:12:44.382Z,5.28
2022-11-10T00:15:47.869Z,4.68
2022-11-10T00:18:33.091Z,5.00
2022-11-10T00:21:18.590Z,5.32
2022-11-10T00:24:04.607Z,5.15
2022-11-10T00:26:49.983Z,4.25
2022-11-10T00:29:34.980Z,4.05
2022-11-10T00:32:19.855Z,3.88
2022-11-10T00:35:05.479Z,4.22
2022-11-10T00:37:51.277Z,3.80
2022-11-10T00:40:36.117Z,3.53
2022-11-10T00:43:26.180Z,3.10
2022-11-10T00:46:11.791Z,3.08
2022-11-10T00:48:56.852Z,3.38
2022-11-10T00:51:41.811Z,2.92
2022-11-10T00:54:26.734Z,3.47
2022-11-10T00:57:11.665Z,3.30
2022-11-10T00:59:56.643Z,3.50
2022-11-10T01:02:41.922Z,3.38
2022-11-10T01:05:26.854Z,3.15
2022-11-10T01:08:12.142Z,3.03
2022-11-10T01:11:12.980Z,3.70
2022-11-10T01:13:57.907Z,3.03
2022-11-10T01:16:43.291Z,4.38
2022-11-10T01:19:28.304Z,3.15
2022-11-10T01:22:13.513Z,4.07
2022-11-10T01:24:58.558Z,3.63
2022-11-10T01:27:43.883Z,3.38
2022-11-10T01:30:29.036Z,4.28
2022-11-10T01:33:13.956Z,3.30
2022-11-10T01:35:59.220Z,3.65
2022-11-10T01:38:44.298Z,3.08
2022-11-10T01:41:29.535Z,3.65
2022-11-10T01:44:23.728Z,3.70
2022-11-10T01:47:09.100Z,3.28
2022-11-10T01:49:54.450Z,3.30
2022-11-10T01:52:39.935Z,3.50
2022-11-10T01:55:25.803Z,3.30
2022-11-10T01:58:13.797Z,3.45
2022-11-10T02:00:59.153Z,3.50
2022-11-10T02:03:51.789Z,3.80
2022-11-10T02:06:42.514Z,4.38
2022-11-10T02:09:27.691Z,3.38
2022-11-10T02:12:14.193Z,3.28
2022-11-10T02:14:59.576Z,3.87
2022-11-10T02:17:47.031Z,3.67
2022-11-10T02:23:35.114Z,3.92
2022-11-10T02:26:25.884Z,4.18
2022-11-10T02:29:11.297Z,4.47
2022-11-10T02:31:56.385Z,4.18
2022-11-10T02:34:42.186Z,4.85
2022-11-10T02:37:27.292Z,3.80
2022-11-10T02:40:12.282Z,4.53
2022-11-10T02:42:57.430Z,3.78
2022-11-10T02:45:45.853Z,4.88
2022-11-10T02:48:30.764Z,4.15
2022-11-10T02:51:16.188Z,4.28
2022-11-10T02:54:02.279Z,4.40
2022-11-10T02:56:47.597Z,4.28
2022-11-10T02:59:32.638Z,4.32
2022-11-10T03:02:17.693Z,4.75
2022-11-10T03:05:02.995Z,5.13
2022-11-10T03:07:58.113Z,5.15
2022-11-10T03:10:43.131Z,4.65
2022-11-10T03:13:44.921Z,5.68
2022-11-10T03:16:33.159Z,4.57
2022-11-10T03:19:18.012Z,4.85
2022-11-10T03:22:02.932Z,4.90
2022-11-10T03:24:48.104Z,4.90
2022-11-10T03:27:33.037Z,5.00
2022-11-10T03:30:18.310Z,4.93
2022-11-10T03:33:03.743Z,4.82
2022-11-10T03:35:48.769Z,4.10
2022-11-10T03:38:33.999Z,4.72
2022-11-10T03:41:20.472Z,4.93
2022-11-10T03:44:06.352Z,5.22
2022-11-10T03:46:51.790Z,4.95
2022-11-10T03:49:37.247Z,5.53
2022-11-10T03:52:22.374Z,5.97
2022-11-10T03:55:07.715Z,5.25
2022-11-10T03:57:53.322Z,5.32
2022-11-10T04:00:38.443Z,5.72
2022-11-10T04:03:24.274Z,5.30
2022-11-10T04:06:40.102Z,5.43
2022-11-10T04:09:25.464Z,5.80
2022-11-10T04:12:30.956Z,6.47
2022-11-10T04:15:34.945Z,4.93
2022-11-10T04:18:26.458Z,5.32
2022-11-10T04:21:12.216Z,5.13
2022-11-10T04:23:57.834Z,5.95
2022-11-10T04:26:43.884Z,5.30
2022-11-10T04:29:28.748Z,6.28
2022-11-10T04:32:14.044Z,5.43
2022-11-10T04:34:58.785Z,5.80
2022-11-10T04:37:46.387Z,5.55
2022-11-10T04:40:31.638Z,5.45
2022-11-10T04:43:16.572Z,5.13
2022-11-10T04:46:02.366Z,5.85
2022-11-10T04:48:47.429Z,5.68
2022-11-10T04:51:38.400Z,6.22
2022-11-10T04:54:23.951Z,5.55
2022-11-10T04:57:09.035Z,6.15
2022-11-10T04:59:53.925Z,7.30
2022-11-10T05:02:39.849Z,7.60
2022-11-10T05:05:25.321Z,4.57
2022-11-10T05:08:11.256Z,3.58
2022-11-10T05:10:56.939Z,4.18
2022-11-10T05:13:42.922Z,3.35
2022-11-10T05:16:27.845Z,5.70
2022-11-10T05:19:13.143Z,6.53
2022-11-10T05:21:58.470Z,6.80
2022-11-10T05:24:43.267Z,7.10
2022-11-10T05:27:29.899Z,7.45
2022-11-10T05:30:15.515Z,7.20
2022-11-10T05:33:00.547Z,7.13
2022-11-10T05:35:45.610Z,7.15
2022-11-10T05:38:30.964Z,8.07
2022-11-10T05:41:15.817Z,7.50
2022-11-10T05:44:00.701Z,7.25
2022-11-10T05:46:45.699Z,6.75
2022-11-10T05:49:30.708Z,6.75
2022-11-10T05:52:16.110Z,5.70
2022-11-10T05:55:02.063Z,5.20
2022-11-10T05:57:49.264Z,5.65
2022-11-10T06:00:35.510Z,5.90
2022-11-10T06:03:21.542Z,6.57
2022-11-10T06:06:06.937Z,6.18
2022-11-10T06:08:52.152Z,6.70
2022-11-10T06:11:37.316Z,8.95
2022-11-10T06:14:22.261Z,8.50
2022-11-10T06:17:07.359Z,9.05
2022-11-10T06:19:52.615Z,8.43
2022-11-10T06:22:37.537Z,7.72
2022-11-10T06:25:22.685Z,7.00
2022-11-10T06:28:08.985Z,5.43
2022-11-10T06:30:58.139Z,5.82
2022-11-10T06:33:43.111Z,5.78
2022-11-10T06:36:28.286Z,6.90
2022-11-10T06:39:13.346Z,7.57
2022-11-10T06:41:58.665Z,5.47
2022-11-10T06:44:43.683Z,5.85
2022-11-10T06:47:29.815Z,6.60
2022-11-10T06:50:15.241Z,6.00
2022-11-10T06:53:00.838Z,6.97
2022-11-10T06:55:46.060Z,7.38
2022-11-10T06:58:30.880Z,9.57
2022-11-10T07:01:21.258Z,8.00
2022-11-10T07:04:19.769Z,8.52
2022-11-10T07:07:06.075Z,8.70
2022-11-10T07:09:51.420Z,8.98
2022-11-10T07:12:36.421Z,10.40
2022-11-10T07:15:21.721Z,9.13
2022-11-10T07:18:07.498Z,10.05
2022-11-10T07:20:52.747Z,10.88
2022-11-10T07:23:37.726Z,9.52
2022-11-10T07:26:22.945Z,10.55
2022-11-10T07:29:08.123Z,9.75
2022-11-10T07:31:53.570Z,8.90
2022-11-10T07:34:38.676Z,7.80
2022-11-10T07:37:23.829Z,7.45
2022-11-10T07:40:09.545Z,4.53
2022-11-10T07:42:54.983Z,4.45
2022-11-10T07:45:40.254Z,4.05
2022-11-10T07:48:25.643Z,4.40
2022-11-10T07:51:10.535Z,5.13
2022-11-10T07:53:55.540Z,6.63
2022-11-10T07:56:41.111Z,6.75
2022-11-10T07:59:26.083Z,6.40
2022-11-10T08:02:11.695Z,6.07
2022-11-10T08:04:56.850Z,6.43
2022-11-10T08:07:41.921Z,5.82
2022-11-10T08:10:28.730Z,7.63
2022-11-10T08:13:14.396Z,6.32
2022-11-10T08:15:59.698Z,6.07
2022-11-10T08:18:44.790Z,6.97
2022-11-10T08:21:31.073Z,7.18
2022-11-10T08:24:16.273Z,7.00
2022-11-10T08:27:01.491Z,6.40
2022-11-10T08:29:46.432Z,6.93
2022-11-10T08:32:31.257Z,6.05
2022-11-10T08:35:16.352Z,7.65
2022-11-10T08:38:22.723Z,6.28
2022-11-10T08:41:07.874Z,6.85
2022-11-10T08:43:53.052Z,6.28
2022-11-10T08:46:38.321Z,6.13
2022-11-10T08:49:23.436Z,7.43
2022-11-10T08:52:08.894Z,6.10
2022-11-10T08:54:54.053Z,7.40
2022-11-10T08:57:39.059Z,7.80
2022-11-10T09:00:24.141Z,7.68
2022-11-10T09:03:13.797Z,6.68
2022-11-10T09:05:59.097Z,7.15
2022-11-10T09:08:43.991Z,6.15
2022-11-10T09:11:30.626Z,5.97
2022-11-10T09:14:15.904Z,4.97
2022-11-10T09:17:00.689Z,4.97
2022-11-10T09:19:45.591Z,5.00
2022-11-10T09:22:30.437Z,4.78
2022-11-10T09:25:15.566Z,4.88
2022-11-10T09:28:00.939Z,4.90
2022-11-10T09:30:47.711Z,4.63
2022-11-10T09:33:32.737Z,4.93
2022-11-10T09:36:17.575Z,4.80
2022-11-10T09:39:02.528Z,5.65
2022-11-10T09:41:47.439Z,4.50
2022-11-10T09:44:51.924Z,4.45
2022-11-10T09:48:00.910Z,6.38
2022-11-10T09:51:01.431Z,4.97
2022-11-10T09:53:55.706Z,4.55
2022-11-10T09:56:41.517Z,5.18
2022-11-10T09:59:29.886Z,5.40
2022-11-10T10:02:49.058Z,4.85
2022-11-10T10:06:05.533Z,4.97
2022-11-10T10:08:56.529Z,3.92
2022-11-10T10:11:53.479Z,4.10
2022-11-10T10:14:38.637Z,3.75
2022-11-10T10:17:34.229Z,4.68
2022-11-10T10:20:41.241Z,4.10
2022-11-10T10:24:07.794Z,4.38
2022-11-10T10:26:53.733Z,4.10
2022-11-10T10:29:49.251Z,4.40
2022-11-10T10:32:34.194Z,4.07
2022-11-10T10:35:19.310Z,3.15
2022-11-10T10:38:12.167Z,4.07
2022-11-10T10:41:03.396Z,4.35
2022-11-10T10:43:51.271Z,4.32
2022-11-10T10:47:11.683Z,5.30
2022-11-10T10:50:20.651Z,3.92
2022-11-10T10:53:12.333Z,4.38
2022-11-10T10:56:01.652Z,4.55
2022-11-10T10:58:55.398Z,4.45
2022-11-10T11:01:43.695Z,4.88
2022-11-10T11:04:35.410Z,4.28
2022-11-10T11:07:24.182Z,3.92
2022-11-10T11:10:24.906Z,3.80
2022-11-10T11:13:13.087Z,3.75
2022-11-10T11:32:42.937Z,5.53
2022-11-10T11:35:45.596Z,4.40
2022-11-10T11:38:44.140Z,4.20
2022-11-10T11:42:14.399Z,3.88
2022-11-10T11:44:59.286Z,4.50
2022-11-10T11:48:14.778Z,4.55
2022-11-10T11:51:18.001Z,3.92
2022-11-10T11:54:02.959Z,3.53
2022-11-10T11:56:50.002Z,3.63
2022-11-10T11:59:50.113Z,3.10
2022-11-10T12:03:00.252Z,2.63
2022-11-10T12:06:13.069Z,3.08
2022-11-10T12:09:26.100Z,3.15
2022-11-10T12:12:23.261Z,3.42
2022-11-10T12:15:32.817Z,3.50
2022-11-10T12:18:52.331Z,2.40
2022-11-10T12:21:51.739Z,3.15
2022-11-10T12:25:05.723Z,3.60
2022-11-10T12:27:57.134Z,2.55
2022-11-10T12:30:43.545Z,2.72
2022-11-10T12:33:48.133Z,2.55
2022-11-10T12:36:33.536Z,2.20
2022-11-10T12:39:38.146Z,2.28
2022-11-10T12:42:26.837Z,2.92
2022-11-10T12:45:39.276Z,3.33
2022-11-10T12:48:27.187Z,3.03
2022-11-10T12:51:27.421Z,3.80
2022-11-10T12:54:16.847Z,2.53
2022-11-10T12:57:18.421Z,3.50
2022-11-10T13:00:08.131Z,3.50
2022-11-10T13:02:55.528Z,3.17
2022-11-10T13:05:45.168Z,2.67
2022-11-10T13:08:34.504Z,2.80
2022-11-10T13:11:34.598Z,2.35
2022-11-10T13:14:23.641Z,2.08
2022-11-10T13:17:11.738Z,1.92
2022-11-10T13:20:14.249Z,3.42
2022-11-10T13:23:23.946Z,3.33
2022-11-10T13:26:32.709Z,2.75
2022-11-10T13:29:31.852Z,2.30
2022-11-10T13:32:32.250Z,3.05
2022-11-10T13:35:29.335Z,2.42
2022-11-10T13:38:32.428Z,3.35
2022-11-10T13:41:17.183Z,2.60
2022-11-10T13:44:02.914Z,2.50
2022-11-10T13:47:10.158Z,2.20
2022-11-10T13:50:01.482Z,2.70
2022-11-10T13:52:59.852Z,2.40
2022-11-10T13:56:03.729Z,2.05
2022-11-10T13:58:48.959Z,2.38
2022-11-10T14:01:33.843Z,2.00
2022-11-10T14:04:41.191Z,2.90
2022-11-10T14:07:31.357Z,2.35
2022-11-10T14:10:19.763Z,2.15
2022-11-10T14:13:12.321Z,2.88
2022-11-10T14:15:58.342Z,2.83
2022-11-10T14:18:51.704Z,2.72
2022-11-10T14:22:07.583Z,2.38
2022-11-10T14:25:14.334Z,2.22
2022-11-10T14:27:59.410Z,2.22
2022-11-10T14:30:51.803Z,2.15
2022-11-10T14:33:36.772Z,2.78
2022-11-10T14:36:22.021Z,2.80
2022-11-10T14:39:07.220Z,2.25
2022-11-10T14:41:52.656Z,2.53
2022-11-10T14:44:38.061Z,3.92
2022-11-10T14:47:31.030Z,3.97
2022-11-10T14:50:28.139Z,3.70
2022-11-10T14:53:35.294Z,2.67
2022-11-10T14:56:28.405Z,3.10
2022-11-10T14:59:14.343Z,2.72
2022-11-10T15:02:01.605Z,2.55
2022-11-10T15:04:50.860Z,3.25
2022-11-10T15:07:36.445Z,2.95
2022-11-10T15:10:28.457Z,2.60
2022-11-10T15:13:13.798Z,2.70
2022-11-10T15:16:28.356Z,2.92
2022-11-10T15:19:21.348Z,2.83
2022-11-10T15:22:36.078Z,2.78
2022-11-10T15:25:30.753Z,3.58
2022-11-10T15:28:35.882Z,3.40
2022-11-10T15:31:26.806Z,3.00
2022-11-10T15:34:32.259Z,3.65
2022-11-10T15:37:30.593Z,4.43
2022-11-10T15:40:30.220Z,3.40
2022-11-10T15:43:27.306Z,3.13
2022-11-10T15:46:18.693Z,3.35
2022-11-10T15:49:03.995Z,2.78
2022-11-10T15:51:51.217Z,3.22
2022-11-10T15:54:37.053Z,2.83
2022-11-10T15:57:22.225Z,2.78
2022-11-10T16:00:11.593Z,2.40
2022-11-10T16:02:56.939Z,3.17
2022-11-10T16:05:42.157Z,3.92
2022-11-10T16:08:27.089Z,3.75
2022-11-10T16:11:22.302Z,4.28
2022-11-10T16:14:13.013Z,4.22
2022-11-10T16:16:58.134Z,4.20
2022-11-10T16:19:43.433Z,4.07
2022-11-10T16:22:28.360Z,5.75
2022-11-10T16:25:19.763Z,4.65
2022-11-10T16:28:17.673Z,4.63
2022-11-10T16:31:02.881Z,4.55
2022-11-10T16:33:49.292Z,4.70
2022-11-10T16:36:34.672Z,5.38
2022-11-10T16:39:20.803Z,4.90
2022-11-10T16:42:05.642Z,4.47
2022-11-10T16:44:50.949Z,5.28
2022-11-10T16:47:35.920Z,5.68
2022-11-10T16:50:35.757Z,5.68
2022-11-10T16:53:23.804Z,4.55
2022-11-10T16:56:14.745Z,5.68
2022-11-10T16:58:59.864Z,5.35
2022-11-10T17:01:46.830Z,4.88
2022-11-10T17:04:32.840Z,6.50
2022-11-10T17:07:23.222Z,5.53
2022-11-10T17:10:17.926Z,4.78
2022-11-10T17:13:03.106Z,5.63
2022-11-10T17:15:48.624Z,6.95
2022-11-10T17:18:35.432Z,8.95
2022-11-10T17:21:21.537Z,10.93
2022-11-10T17:24:07.802Z,10.27
2022-11-10T17:26:53.519Z,9.50
2022-11-10T17:29:38.670Z,10.57
2022-11-10T17:32:43.249Z,10.05
2022-11-10T17:35:28.868Z,9.43
2022-11-10T17:38:34.213Z,9.80
2022-11-10T17:41:19.994Z,9.70
2022-11-10T17:44:05.077Z,8.70
2022-11-10T17:46:49.923Z,8.55
2022-11-10T17:49:34.813Z,7.35
2022-11-10T17:52:19.695Z,8.00
2022-11-10T17:55:04.970Z,7.00
2022-11-10T17:57:50.718Z,6.65
2022-11-10T18:00:35.742Z,7.43
2022-11-10T18:03:22.665Z,6.55
2022-11-10T18:06:08.233Z,6.10
2022-11-10T18:08:53.202Z,5.32
2022-11-10T18:11:38.446Z,6.25
2022-11-10T18:14:23.512Z,6.63
2022-11-10T18:17:09.081Z,6.07
2022-11-10T18:19:54.050Z,6.20
2022-11-10T18:22:39.828Z,6.05
2022-11-10T18:25:24.724Z,6.10
2022-11-10T18:28:13.766Z,7.88
2022-11-10T18:31:05.276Z,7.53
2022-11-10T18:33:53.892Z,6.72
2022-11-10T18:36:38.817Z,7.53
2022-11-10T18:39:25.157Z,5.30
2022-11-10T18:42:10.583Z,6.20
2022-11-10T18:44:55.714Z,6.85
2022-11-10T18:47:40.817Z,6.20
2022-11-10T18:50:25.969Z,6.43
2022-11-10T18:53:10.874Z,7.32
2022-11-10T18:55:56.555Z,6.22
2022-11-10T18:58:41.660Z,6.10
2022-11-10T19:01:28.090Z,6.20
2022-11-10T19:04:13.961Z,6.60
2022-11-10T19:06:58.895Z,6.53
2022-11-10T19:09:44.332Z,7.70
2022-11-10T19:12:30.949Z,8.50
2022-11-10T19:15:16.127Z,7.40
2022-11-10T19:18:01.926Z,7.15
2022-11-10T19:20:47.230Z,7.53
2022-11-10T19:23:32.529Z,8.38
2022-11-10T19:26:22.846Z,8.55
2022-11-10T19:29:08.413Z,7.78
2022-11-10T19:31:53.476Z,7.38
2022-11-10T19:34:38.410Z,8.55
2022-11-10T19:37:23.532Z,9.02
2022-11-10T19:40:09.098Z,8.63
2022-11-10T19:42:54.060Z,9.07
2022-11-10T19:45:39.140Z,9.00
2022-11-10T19:48:24.202Z,8.68
2022-11-10T19:51:12.800Z,10.35
2022-11-10T19:54:02.633Z,9.73
2022-11-10T19:56:47.375Z,10.52
2022-11-10T19:59:33.089Z,11.05
2022-11-10T20:02:18.750Z,10.30
2022-11-10T20:05:13.258Z,12.23
2022-11-10T20:08:13.289Z,11.40
2022-11-10T20:11:04.307Z,11.00
2022-11-10T20:13:54.677Z,11.10
2022-11-10T20:16:40.557Z,11.38
2022-11-10T20:19:25.836Z,11.68
2022-11-10T20:22:12.882Z,11.60
2022-11-10T20:24:57.861Z,11.45
2022-11-10T20:27:42.694Z,12.05
2022-11-10T20:30:27.952Z,13.02
2022-11-10T20:33:13.037Z,13.98
2022-11-10T20:36:14.786Z,13.60
2022-11-10T20:39:02.700Z,12.07
2022-11-10T20:41:47.862Z,12.90
2022-11-10T20:44:32.702Z,12.48
2022-11-10T20:47:17.655Z,10.70
2022-11-10T20:50:03.541Z,12.82
2022-11-10T20:52:49.172Z,10.43
2022-11-10T20:55:53.251Z,9.93
2022-11-10T20:58:40.107Z,9.00
2022-11-10T21:01:25.667Z,8.48
2022-11-10T21:04:11.679Z,8.10
2022-11-10T21:06:56.811Z,8.13
2022-11-10T21:09:42.191Z,8.32
2022-11-10T21:12:59.391Z,10.13
2022-11-10T21:15:48.678Z,8.75
2022-11-10T21:18:36.459Z,11.30
2022-11-10T21:21:26.350Z,10.20
2022-11-10T21:24:11.644Z,9.02
2022-11-10T21:26:57.734Z,10.05
2022-11-10T21:29:42.937Z,9.30
2022-11-10T21:32:28.403Z,9.05
2022-11-10T21:35:13.644Z,10.23
2022-11-10T21:37:58.740Z,9.65
2022-11-10T21:40:43.688Z,8.57
2022-11-10T21:43:28.564Z,8.27
2022-11-10T21:46:13.981Z,9.00
2022-11-10T21:49:03.121Z,9.73
2022-11-10T21:51:52.246Z,10.30
2022-11-10T21:54:37.480Z,11.40
2022-11-10T21:57:22.222Z,10.95
2022-11-10T22:00:07.766Z,11.32
2022-11-10T22:02:57.695Z,13.52
2022-11-10T22:05:42.833Z,14.48
2022-11-10T22:08:27.857Z,14.65
2022-11-10T22:11:34.034Z,14.00
2022-11-10T22:14:37.965Z,13.05
2022-11-10T22:17:41.970Z,11.57
2022-11-10T22:20:27.137Z,10.95
2022-11-10T22:23:12.534Z,10.73
2022-11-10T22:25:57.508Z,9.38
2022-11-10T22:28:42.951Z,11.20
2022-11-10T22:31:28.083Z,11.35
2022-11-10T22:34:13.122Z,11.77
2022-11-10T22:36:59.667Z,12.55
2022-11-10T22:40:03.738Z,13.35
2022-11-10T22:43:07.598Z,11.35
2022-11-10T22:45:52.757Z,13.55
2022-11-10T22:48:37.696Z,13.23
2022-11-10T22:51:23.138Z,12.60
2022-11-10T22:54:14.273Z,15.45
2022-11-10T22:56:59.234Z,11.20
2022-11-10T22:59:44.060Z,13.20
2022-11-10T23:17:27.910Z,13.50
2022-11-10T23:20:13.305Z,12.85
2022-11-10T23:22:58.549Z,14.13
2022-11-10T23:25:43.398Z,12.73
2022-11-10T23:28:29.925Z,13.15
2022-11-10T23:31:17.404Z,14.90
2022-11-10T23:34:02.656Z,11.63
2022-11-10T23:36:47.718Z,13.10
2022-11-10T23:39:32.691Z,13.18
2022-11-10T23:42:17.642Z,12.48
2022-11-10T23:45:02.516Z,11.18
2022-11-10T23:47:47.786Z,11.95
2022-11-10T23:50:33.186Z,11.93
2022-11-10T23:53:19.105Z,13.32
2022-11-10T23:56:06.681Z,11.48
2022-11-10T23:58:51.814Z,11.38
